sensor_id;sensor_type;location;lat;lon;timestamp;P1;durP1;ratioP1;P2;durP2;ratioP2
42168;SDS011;27838;43.858;25.974;2024-02-21T00:00:18;38.78;;;19.95;;
42168;SDS011;27838;43.858;25.974;2024-02-21T00:02:45;35.95;;;20.08;;
42168;SDS011;27838;43.858;25.974;2024-02-21T00:05:12;34.90;;;21.27;;
42168;SDS011;27838;43.858;25.974;2024-02-21T00:07:38;34.95;;;20.05;;
42168;SDS011;27838;43.858;25.974;2024-02-21T00:10:05;37.30;;;20.98;;
42168;SDS011;27838;43.858;25.974;2024-02-21T00:12:32;33.55;;;20.35;;
42168;SDS011;27838;43.858;25.974;2024-02-21T00:14:59;38.03;;;20.02;;
42168;SDS011;27838;43.858;25.974;2024-02-21T00:17:25;37.08;;;21.15;;
42168;SDS011;27838;43.858;25.974;2024-02-21T00:19:52;34.40;;;20.58;;
42168;SDS011;27838;43.858;25.974;2024-02-21T00:22:18;36.58;;;21.50;;
42168;SDS011;27838;43.858;25.974;2024-02-21T00:24:45;36.78;;;21.20;;
42168;SDS011;27838;43.858;25.974;2024-02-21T00:27:11;34.75;;;20.10;;
42168;SDS011;27838;43.858;25.974;2024-02-21T00:29:38;34.88;;;20.83;;
42168;SDS011;27838;43.858;25.974;2024-02-21T00:32:05;39.20;;;20.88;;
42168;SDS011;27838;43.858;25.974;2024-02-21T00:34:31;35.50;;;21.08;;
42168;SDS011;27838;43.858;25.974;2024-02-21T00:36:58;30.67;;;20.10;;
42168;SDS011;27838;43.858;25.974;2024-02-21T00:39:25;37.10;;;20.40;;
42168;SDS011;27838;43.858;25.974;2024-02-21T00:41:51;35.22;;;20.95;;
42168;SDS011;27838;43.858;25.974;2024-02-21T00:44:18;35.35;;;20.58;;
42168;SDS011;27838;43.858;25.974;2024-02-21T00:46:44;35.55;;;20.48;;
42168;SDS011;27838;43.858;25.974;2024-02-21T00:49:12;36.50;;;20.80;;
42168;SDS011;27838;43.858;25.974;2024-02-21T00:51:38;33.67;;;20.52;;
42168;SDS011;27838;43.858;25.974;2024-02-21T00:54:05;34.35;;;21.55;;
42168;SDS011;27838;43.858;25.974;2024-02-21T00:56:32;36.88;;;20.77;;
42168;SDS011;27838;43.858;25.974;2024-02-21T00:58:58;34.78;;;20.60;;
42168;SDS011;27838;43.858;25.974;2024-02-21T01:01:25;33.53;;;19.73;;
42168;SDS011;27838;43.858;25.974;2024-02-21T01:03:52;36.80;;;20.52;;
42168;SDS011;27838;43.858;25.974;2024-02-21T01:06:19;35.95;;;21.13;;
42168;SDS011;27838;43.858;25.974;2024-02-21T01:08:46;37.80;;;20.90;;
42168;SDS011;27838;43.858;25.974;2024-02-21T01:11:14;38.35;;;22.02;;
42168;SDS011;27838;43.858;25.974;2024-02-21T01:13:41;38.58;;;21.55;;
42168;SDS011;27838;43.858;25.974;2024-02-21T01:16:07;34.92;;;21.48;;
42168;SDS011;27838;43.858;25.974;2024-02-21T01:18:34;39.00;;;21.25;;
42168;SDS011;27838;43.858;25.974;2024-02-21T01:21:03;35.22;;;19.70;;
42168;SDS011;27838;43.858;25.974;2024-02-21T01:23:32;38.10;;;20.50;;
42168;SDS011;27838;43.858;25.974;2024-02-21T01:26:02;35.90;;;20.65;;
42168;SDS011;27838;43.858;25.974;2024-02-21T01:28:30;36.70;;;20.88;;
42168;SDS011;27838;43.858;25.974;2024-02-21T01:30:59;37.45;;;19.85;;
42168;SDS011;27838;43.858;25.974;2024-02-21T01:33:25;34.95;;;20.13;;
42168;SDS011;27838;43.858;25.974;2024-02-21T01:35:52;36.15;;;19.92;;
42168;SDS011;27838;43.858;25.974;2024-02-21T01:38:18;36.67;;;20.13;;
42168;SDS011;27838;43.858;25.974;2024-02-21T01:40:46;33.15;;;19.10;;
42168;SDS011;27838;43.858;25.974;2024-02-21T01:43:16;34.58;;;19.67;;
42168;SDS011;27838;43.858;25.974;2024-02-21T01:45:48;36.45;;;20.52;;
42168;SDS011;27838;43.858;25.974;2024-02-21T01:48:20;33.30;;;18.77;;
42168;SDS011;27838;43.858;25.974;2024-02-21T01:50:51;33.92;;;19.75;;
42168;SDS011;27838;43.858;25.974;2024-02-21T01:53:21;34.60;;;21.38;;
42168;SDS011;27838;43.858;25.974;2024-02-21T01:56:00;40.72;;;20.92;;
42168;SDS011;27838;43.858;25.974;2024-02-21T01:58:27;37.80;;;20.98;;
42168;SDS011;27838;43.858;25.974;2024-02-21T02:00:56;34.90;;;19.77;;
42168;SDS011;27838;43.858;25.974;2024-02-21T02:03:23;36.00;;;20.92;;
42168;SDS011;27838;43.858;25.974;2024-02-21T02:05:50;36.97;;;20.17;;
42168;SDS011;27838;43.858;25.974;2024-02-21T02:08:18;37.28;;;20.38;;
42168;SDS011;27838;43.858;25.974;2024-02-21T02:10:47;34.30;;;19.30;;
42168;SDS011;27838;43.858;25.974;2024-02-21T02:13:13;36.00;;;19.67;;
42168;SDS011;27838;43.858;25.974;2024-02-21T02:15:41;34.63;;;19.85;;
42168;SDS011;27838;43.858;25.974;2024-02-21T02:18:09;38.03;;;20.60;;
42168;SDS011;27838;43.858;25.974;2024-02-21T02:20:36;35.25;;;19.15;;
42168;SDS011;27838;43.858;25.974;2024-02-21T02:23:05;37.22;;;19.30;;
42168;SDS011;27838;43.858;25.974;2024-02-21T02:25:37;35.28;;;19.77;;
42168;SDS011;27838;43.858;25.974;2024-02-21T02:28:05;36.60;;;19.30;;
42168;SDS011;27838;43.858;25.974;2024-02-21T02:30:33;37.70;;;20.38;;
42168;SDS011;27838;43.858;25.974;2024-02-21T02:33:01;31.60;;;18.05;;
42168;SDS011;27838;43.858;25.974;2024-02-21T02:35:28;37.53;;;19.45;;
42168;SDS011;27838;43.858;25.974;2024-02-21T02:37:55;34.78;;;19.52;;
42168;SDS011;27838;43.858;25.974;2024-02-21T02:40:21;35.58;;;19.50;;
42168;SDS011;27838;43.858;25.974;2024-02-21T02:42:48;30.17;;;17.63;;
42168;SDS011;27838;43.858;25.974;2024-02-21T02:45:16;30.45;;;18.10;;
42168;SDS011;27838;43.858;25.974;2024-02-21T02:47:46;31.08;;;18.52;;
42168;SDS011;27838;43.858;25.974;2024-02-21T02:50:13;31.52;;;18.58;;
42168;SDS011;27838;43.858;25.974;2024-02-21T02:52:40;32.20;;;17.98;;
42168;SDS011;27838;43.858;25.974;2024-02-21T02:55:06;33.20;;;18.50;;
42168;SDS011;27838;43.858;25.974;2024-02-21T02:57:33;32.28;;;18.25;;
42168;SDS011;27838;43.858;25.974;2024-02-21T03:00:00;29.52;;;17.85;;
42168;SDS011;27838;43.858;25.974;2024-02-21T03:02:26;32.90;;;17.23;;
42168;SDS011;27838;43.858;25.974;2024-02-21T03:04:53;30.45;;;18.27;;
42168;SDS011;27838;43.858;25.974;2024-02-21T03:07:19;35.00;;;18.98;;
42168;SDS011;27838;43.858;25.974;2024-02-21T03:09:46;32.40;;;17.73;;
42168;SDS011;27838;43.858;25.974;2024-02-21T03:12:13;32.58;;;17.77;;
42168;SDS011;27838;43.858;25.974;2024-02-21T03:14:44;30.92;;;17.60;;
42168;SDS011;27838;43.858;25.974;2024-02-21T03:17:10;29.05;;;17.80;;
42168;SDS011;27838;43.858;25.974;2024-02-21T03:19:37;29.45;;;18.30;;
42168;SDS011;27838;43.858;25.974;2024-02-21T03:22:03;32.20;;;18.48;;
42168;SDS011;27838;43.858;25.974;2024-02-21T03:24:31;31.88;;;18.55;;
42168;SDS011;27838;43.858;25.974;2024-02-21T03:26:57;33.13;;;18.20;;
42168;SDS011;27838;43.858;25.974;2024-02-21T03:29:24;34.58;;;18.23;;
42168;SDS011;27838;43.858;25.974;2024-02-21T03:31:51;30.92;;;18.77;;
42168;SDS011;27838;43.858;25.974;2024-02-21T03:34:18;35.22;;;18.73;;
42168;SDS011;27838;43.858;25.974;2024-02-21T03:36:44;29.63;;;18.00;;
42168;SDS011;27838;43.858;25.974;2024-02-21T03:39:11;29.33;;;18.00;;
42168;SDS011;27838;43.858;25.974;2024-02-21T03:41:37;34.00;;;17.83;;
42168;SDS011;27838;43.858;25.974;2024-02-21T03:44:04;33.28;;;17.95;;
42168;SDS011;27838;43.858;25.974;2024-02-21T03:46:30;28.23;;;18.35;;
42168;SDS011;27838;43.858;25.974;2024-02-21T03:48:57;33.67;;;18.45;;
42168;SDS011;27838;43.858;25.974;2024-02-21T03:51:24;33.38;;;18.30;;
42168;SDS011;27838;43.858;25.974;2024-02-21T03:53:51;34.40;;;19.40;;
42168;SDS011;27838;43.858;25.974;2024-02-21T03:56:17;34.97;;;18.50;;
42168;SDS011;27838;43.858;25.974;2024-02-21T03:58:44;33.45;;;19.05;;
42168;SDS011;27838;43.858;25.974;2024-02-21T04:01:10;35.33;;;20.02;;
42168;SDS011;27838;43.858;25.974;2024-02-21T04:03:37;35.88;;;19.52;;
42168;SDS011;27838;43.858;25.974;2024-02-21T04:06:04;36.47;;;19.73;;
42168;SDS011;27838;43.858;25.974;2024-02-21T04:08:33;37.72;;;19.48;;
42168;SDS011;27838;43.858;25.974;2024-02-21T04:11:00;37.85;;;19.65;;
42168;SDS011;27838;43.858;25.974;2024-02-21T04:13:27;32.08;;;18.10;;
42168;SDS011;27838;43.858;25.974;2024-02-21T04:15:53;39.00;;;19.80;;
42168;SDS011;27838;43.858;25.974;2024-02-21T04:18:20;36.28;;;19.23;;
42168;SDS011;27838;43.858;25.974;2024-02-21T04:20:47;32.60;;;18.48;;
42168;SDS011;27838;43.858;25.974;2024-02-21T04:23:13;38.00;;;19.83;;
42168;SDS011;27838;43.858;25.974;2024-02-21T04:25:40;33.83;;;18.95;;
42168;SDS011;27838;43.858;25.974;2024-02-21T04:28:06;34.33;;;18.90;;
42168;SDS011;27838;43.858;25.974;2024-02-21T04:30:33;33.45;;;19.17;;
42168;SDS011;27838;43.858;25.974;2024-02-21T04:33:00;37.15;;;19.77;;
42168;SDS011;27838;43.858;25.974;2024-02-21T04:35:26;34.90;;;19.05;;
42168;SDS011;27838;43.858;25.974;2024-02-21T04:37:53;39.67;;;19.95;;
42168;SDS011;27838;43.858;25.974;2024-02-21T04:40:19;30.90;;;18.70;;
42168;SDS011;27838;43.858;25.974;2024-02-21T04:42:46;34.38;;;19.90;;
42168;SDS011;27838;43.858;25.974;2024-02-21T04:45:13;34.10;;;19.58;;
42168;SDS011;27838;43.858;25.974;2024-02-21T04:47:39;32.92;;;18.67;;
42168;SDS011;27838;43.858;25.974;2024-02-21T04:50:06;31.88;;;18.48;;
42168;SDS011;27838;43.858;25.974;2024-02-21T04:52:33;31.58;;;19.23;;
42168;SDS011;27838;43.858;25.974;2024-02-21T04:54:59;31.33;;;17.70;;
42168;SDS011;27838;43.858;25.974;2024-02-21T04:57:26;37.13;;;19.33;;
42168;SDS011;27838;43.858;25.974;2024-02-21T04:59:52;31.65;;;18.48;;
42168;SDS011;27838;43.858;25.974;2024-02-21T05:02:19;38.55;;;19.52;;
42168;SDS011;27838;43.858;25.974;2024-02-21T05:04:47;35.03;;;19.00;;
42168;SDS011;27838;43.858;25.974;2024-02-21T05:07:14;33.15;;;18.38;;
42168;SDS011;27838;43.858;25.974;2024-02-21T05:09:42;28.52;;;18.60;;
42168;SDS011;27838;43.858;25.974;2024-02-21T05:12:08;32.47;;;17.85;;
42168;SDS011;27838;43.858;25.974;2024-02-21T05:14:35;38.45;;;17.85;;
42168;SDS011;27838;43.858;25.974;2024-02-21T05:17:02;31.88;;;19.02;;
42168;SDS011;27838;43.858;25.974;2024-02-21T05:19:29;37.60;;;20.35;;
42168;SDS011;27838;43.858;25.974;2024-02-21T05:21:56;33.97;;;18.77;;
42168;SDS011;27838;43.858;25.974;2024-02-21T05:24:22;31.90;;;18.45;;
42168;SDS011;27838;43.858;25.974;2024-02-21T05:26:49;34.97;;;19.40;;
42168;SDS011;27838;43.858;25.974;2024-02-21T05:29:15;31.55;;;17.80;;
42168;SDS011;27838;43.858;25.974;2024-02-21T05:32:03;33.10;;;19.13;;
42168;SDS011;27838;43.858;25.974;2024-02-21T05:34:29;34.63;;;20.52;;
42168;SDS011;27838;43.858;25.974;2024-02-21T05:36:55;32.45;;;18.88;;
42168;SDS011;27838;43.858;25.974;2024-02-21T05:39:22;35.30;;;20.02;;
42168;SDS011;27838;43.858;25.974;2024-02-21T05:41:49;32.88;;;18.15;;
42168;SDS011;27838;43.858;25.974;2024-02-21T05:44:16;33.17;;;19.95;;
42168;SDS011;27838;43.858;25.974;2024-02-21T05:46:43;31.17;;;19.00;;
42168;SDS011;27838;43.858;25.974;2024-02-21T05:49:10;35.08;;;20.33;;
42168;SDS011;27838;43.858;25.974;2024-02-21T05:51:36;31.10;;;19.00;;
42168;SDS011;27838;43.858;25.974;2024-02-21T05:54:03;33.97;;;18.88;;
42168;SDS011;27838;43.858;25.974;2024-02-21T05:56:29;37.42;;;20.65;;
42168;SDS011;27838;43.858;25.974;2024-02-21T05:58:56;33.92;;;19.10;;
42168;SDS011;27838;43.858;25.974;2024-02-21T06:01:23;30.10;;;18.23;;
42168;SDS011;27838;43.858;25.974;2024-02-21T06:03:49;32.80;;;17.85;;
42168;SDS011;27838;43.858;25.974;2024-02-21T06:06:16;37.25;;;20.55;;
42168;SDS011;27838;43.858;25.974;2024-02-21T06:08:42;37.58;;;19.58;;
42168;SDS011;27838;43.858;25.974;2024-02-21T06:11:09;34.47;;;18.48;;
42168;SDS011;27838;43.858;25.974;2024-02-21T06:13:37;29.40;;;18.95;;
42168;SDS011;27838;43.858;25.974;2024-02-21T06:16:05;34.85;;;19.25;;
42168;SDS011;27838;43.858;25.974;2024-02-21T06:18:35;35.40;;;19.35;;
42168;SDS011;27838;43.858;25.974;2024-02-21T06:21:02;36.58;;;20.25;;
42168;SDS011;27838;43.858;25.974;2024-02-21T06:23:29;31.88;;;19.00;;
42168;SDS011;27838;43.858;25.974;2024-02-21T06:25:56;38.85;;;21.95;;
42168;SDS011;27838;43.858;25.974;2024-02-21T06:28:22;39.50;;;22.63;;
42168;SDS011;27838;43.858;25.974;2024-02-21T06:30:49;42.28;;;24.10;;
42168;SDS011;27838;43.858;25.974;2024-02-21T06:33:15;38.80;;;22.08;;
42168;SDS011;27838;43.858;25.974;2024-02-21T06:35:42;40.88;;;21.42;;
42168;SDS011;27838;43.858;25.974;2024-02-21T06:38:11;43.88;;;22.40;;
42168;SDS011;27838;43.858;25.974;2024-02-21T06:40:37;38.53;;;22.60;;
42168;SDS011;27838;43.858;25.974;2024-02-21T06:43:04;36.97;;;21.42;;
42168;SDS011;27838;43.858;25.974;2024-02-21T06:45:32;42.30;;;21.88;;
42168;SDS011;27838;43.858;25.974;2024-02-21T06:47:58;45.38;;;25.83;;
42168;SDS011;27838;43.858;25.974;2024-02-21T06:50:25;40.50;;;23.08;;
42168;SDS011;27838;43.858;25.974;2024-02-21T06:52:51;40.45;;;23.10;;
42168;SDS011;27838;43.858;25.974;2024-02-21T06:55:18;45.65;;;24.92;;
42168;SDS011;27838;43.858;25.974;2024-02-21T06:57:44;41.40;;;22.75;;
42168;SDS011;27838;43.858;25.974;2024-02-21T07:00:13;46.88;;;26.95;;
42168;SDS011;27838;43.858;25.974;2024-02-21T07:02:41;56.20;;;27.77;;
42168;SDS011;27838;43.858;25.974;2024-02-21T07:05:08;53.47;;;27.08;;
42168;SDS011;27838;43.858;25.974;2024-02-21T07:07:34;55.67;;;30.73;;
42168;SDS011;27838;43.858;25.974;2024-02-21T07:10:01;53.17;;;27.45;;
42168;SDS011;27838;43.858;25.974;2024-02-21T07:12:29;46.45;;;24.85;;
42168;SDS011;27838;43.858;25.974;2024-02-21T07:14:56;42.60;;;24.45;;
42168;SDS011;27838;43.858;25.974;2024-02-21T07:17:22;44.28;;;23.17;;
42168;SDS011;27838;43.858;25.974;2024-02-21T07:19:49;53.97;;;25.08;;
42168;SDS011;27838;43.858;25.974;2024-02-21T07:22:15;58.28;;;27.42;;
42168;SDS011;27838;43.858;25.974;2024-02-21T07:24:42;40.78;;;22.63;;
42168;SDS011;27838;43.858;25.974;2024-02-21T07:27:08;44.05;;;23.15;;
42168;SDS011;27838;43.858;25.974;2024-02-21T07:29:35;40.30;;;23.30;;
42168;SDS011;27838;43.858;25.974;2024-02-21T07:32:02;38.22;;;21.10;;
42168;SDS011;27838;43.858;25.974;2024-02-21T07:34:28;41.05;;;22.23;;
42168;SDS011;27838;43.858;25.974;2024-02-21T07:36:55;38.17;;;22.23;;
42168;SDS011;27838;43.858;25.974;2024-02-21T07:39:22;34.58;;;20.95;;
42168;SDS011;27838;43.858;25.974;2024-02-21T07:41:48;38.80;;;22.45;;
42168;SDS011;27838;43.858;25.974;2024-02-21T07:44:15;36.88;;;21.40;;
42168;SDS011;27838;43.858;25.974;2024-02-21T07:46:42;42.28;;;21.30;;
42168;SDS011;27838;43.858;25.974;2024-02-21T07:49:08;45.10;;;22.60;;
42168;SDS011;27838;43.858;25.974;2024-02-21T07:51:35;42.30;;;21.85;;
42168;SDS011;27838;43.858;25.974;2024-02-21T07:54:02;38.80;;;21.88;;
42168;SDS011;27838;43.858;25.974;2024-02-21T07:56:29;40.03;;;22.27;;
42168;SDS011;27838;43.858;25.974;2024-02-21T07:58:56;37.47;;;21.90;;
42168;SDS011;27838;43.858;25.974;2024-02-21T08:01:22;38.40;;;21.67;;
42168;SDS011;27838;43.858;25.974;2024-02-21T08:03:49;37.03;;;21.45;;
42168;SDS011;27838;43.858;25.974;2024-02-21T08:06:15;40.45;;;22.15;;
42168;SDS011;27838;43.858;25.974;2024-02-21T08:08:42;44.30;;;22.40;;
42168;SDS011;27838;43.858;25.974;2024-02-21T08:11:08;34.55;;;19.58;;
42168;SDS011;27838;43.858;25.974;2024-02-21T08:13:35;37.70;;;20.25;;
42168;SDS011;27838;43.858;25.974;2024-02-21T08:16:01;34.25;;;18.90;;
42168;SDS011;27838;43.858;25.974;2024-02-21T08:18:28;39.45;;;20.52;;
42168;SDS011;27838;43.858;25.974;2024-02-21T08:20:55;38.83;;;20.27;;
42168;SDS011;27838;43.858;25.974;2024-02-21T08:23:23;37.40;;;19.70;;
42168;SDS011;27838;43.858;25.974;2024-02-21T08:25:49;34.45;;;18.98;;
42168;SDS011;27838;43.858;25.974;2024-02-21T08:28:16;31.77;;;19.17;;
42168;SDS011;27838;43.858;25.974;2024-02-21T08:30:42;33.90;;;17.30;;
42168;SDS011;27838;43.858;25.974;2024-02-21T08:33:13;32.38;;;18.80;;
42168;SDS011;27838;43.858;25.974;2024-02-21T08:35:41;30.45;;;18.92;;
42168;SDS011;27838;43.858;25.974;2024-02-21T08:38:08;30.55;;;17.33;;
42168;SDS011;27838;43.858;25.974;2024-02-21T08:40:35;32.88;;;17.55;;
42168;SDS011;27838;43.858;25.974;2024-02-21T08:43:01;29.58;;;17.00;;
42168;SDS011;27838;43.858;25.974;2024-02-21T08:45:28;30.95;;;16.15;;
42168;SDS011;27838;43.858;25.974;2024-02-21T08:47:55;28.35;;;18.55;;
42168;SDS011;27838;43.858;25.974;2024-02-21T08:50:21;33.30;;;17.92;;
42168;SDS011;27838;43.858;25.974;2024-02-21T08:52:48;32.28;;;17.45;;
42168;SDS011;27838;43.858;25.974;2024-02-21T08:55:15;35.28;;;16.55;;
42168;SDS011;27838;43.858;25.974;2024-02-21T08:57:41;31.45;;;15.85;;
42168;SDS011;27838;43.858;25.974;2024-02-21T09:00:08;28.63;;;16.20;;
42168;SDS011;27838;43.858;25.974;2024-02-21T09:02:36;33.28;;;17.05;;
42168;SDS011;27838;43.858;25.974;2024-02-21T09:05:06;27.05;;;16.33;;
42168;SDS011;27838;43.858;25.974;2024-02-21T09:07:33;25.30;;;15.07;;
42168;SDS011;27838;43.858;25.974;2024-02-21T09:09:59;28.55;;;14.73;;
42168;SDS011;27838;43.858;25.974;2024-02-21T09:12:26;27.65;;;14.93;;
42168;SDS011;27838;43.858;25.974;2024-02-21T09:14:53;31.23;;;15.40;;
42168;SDS011;27838;43.858;25.974;2024-02-21T09:17:20;27.67;;;15.02;;
42168;SDS011;27838;43.858;25.974;2024-02-21T09:19:47;31.02;;;15.30;;
42168;SDS011;27838;43.858;25.974;2024-02-21T09:22:13;30.75;;;18.60;;
42168;SDS011;27838;43.858;25.974;2024-02-21T09:24:40;33.95;;;17.77;;
42168;SDS011;27838;43.858;25.974;2024-02-21T09:27:07;26.95;;;16.38;;
42168;SDS011;27838;43.858;25.974;2024-02-21T09:29:33;29.90;;;16.27;;
42168;SDS011;27838;43.858;25.974;2024-02-21T09:32:01;30.42;;;17.60;;
42168;SDS011;27838;43.858;25.974;2024-02-21T09:34:28;34.47;;;17.88;;
42168;SDS011;27838;43.858;25.974;2024-02-21T09:36:55;31.42;;;18.73;;
42168;SDS011;27838;43.858;25.974;2024-02-21T09:39:22;30.67;;;18.80;;
42168;SDS011;27838;43.858;25.974;2024-02-21T09:41:50;32.47;;;19.95;;
42168;SDS011;27838;43.858;25.974;2024-02-21T09:44:22;29.67;;;18.52;;
42168;SDS011;27838;43.858;25.974;2024-02-21T09:46:55;32.25;;;19.00;;
42168;SDS011;27838;43.858;25.974;2024-02-21T09:49:34;34.42;;;19.70;;
42168;SDS011;27838;43.858;25.974;2024-02-21T09:52:03;34.85;;;19.70;;
42168;SDS011;27838;43.858;25.974;2024-02-21T09:54:34;39.42;;;17.52;;
42168;SDS011;27838;43.858;25.974;2024-02-21T09:57:01;31.52;;;17.73;;
42168;SDS011;27838;43.858;25.974;2024-02-21T09:59:30;28.65;;;16.92;;
42168;SDS011;27838;43.858;25.974;2024-02-21T10:01:58;38.58;;;17.98;;
42168;SDS011;27838;43.858;25.974;2024-02-21T10:04:25;29.48;;;17.20;;
42168;SDS011;27838;43.858;25.974;2024-02-21T10:06:53;27.98;;;16.45;;
42168;SDS011;27838;43.858;25.974;2024-02-21T10:09:21;29.17;;;16.35;;
42168;SDS011;27838;43.858;25.974;2024-02-21T10:11:53;28.90;;;17.17;;
42168;SDS011;27838;43.858;25.974;2024-02-21T10:14:20;31.10;;;17.20;;
42168;SDS011;27838;43.858;25.974;2024-02-21T10:16:56;31.17;;;17.88;;
42168;SDS011;27838;43.858;25.974;2024-02-21T10:19:24;33.88;;;19.17;;
42168;SDS011;27838;43.858;25.974;2024-02-21T10:22:04;32.63;;;19.35;;
42168;SDS011;27838;43.858;25.974;2024-02-21T10:24:33;37.80;;;17.75;;
42168;SDS011;27838;43.858;25.974;2024-02-21T10:27:04;36.75;;;17.85;;
42168;SDS011;27838;43.858;25.974;2024-02-21T10:29:33;31.50;;;18.20;;
42168;SDS011;27838;43.858;25.974;2024-02-21T10:32:06;34.35;;;19.90;;
42168;SDS011;27838;43.858;25.974;2024-02-21T10:34:35;32.30;;;18.40;;
42168;SDS011;27838;43.858;25.974;2024-02-21T10:37:06;29.75;;;17.67;;
42168;SDS011;27838;43.858;25.974;2024-02-21T10:39:34;27.77;;;17.90;;
42168;SDS011;27838;43.858;25.974;2024-02-21T10:42:03;42.55;;;20.05;;
42168;SDS011;27838;43.858;25.974;2024-02-21T10:44:34;30.65;;;18.23;;
42168;SDS011;27838;43.858;25.974;2024-02-21T10:47:05;36.90;;;19.08;;
42168;SDS011;27838;43.858;25.974;2024-02-21T10:49:36;33.72;;;19.60;;
42168;SDS011;27838;43.858;25.974;2024-02-21T10:52:06;34.25;;;19.80;;
42168;SDS011;27838;43.858;25.974;2024-02-21T10:54:58;35.25;;;19.90;;
42168;SDS011;27838;43.858;25.974;2024-02-21T10:57:31;36.00;;;20.13;;
42168;SDS011;27838;43.858;25.974;2024-02-21T10:59:58;41.22;;;21.15;;
42168;SDS011;27838;43.858;25.974;2024-02-21T11:02:26;40.25;;;21.55;;
42168;SDS011;27838;43.858;25.974;2024-02-21T11:04:56;39.50;;;21.60;;
42168;SDS011;27838;43.858;25.974;2024-02-21T11:07:24;38.90;;;22.00;;
42168;SDS011;27838;43.858;25.974;2024-02-21T11:09:51;42.60;;;23.45;;
42168;SDS011;27838;43.858;25.974;2024-02-21T11:12:20;45.22;;;23.55;;
42168;SDS011;27838;43.858;25.974;2024-02-21T11:14:48;44.53;;;22.45;;
42168;SDS011;27838;43.858;25.974;2024-02-21T11:17:18;35.58;;;21.55;;
42168;SDS011;27838;43.858;25.974;2024-02-21T11:19:46;34.55;;;21.77;;
42168;SDS011;27838;43.858;25.974;2024-02-21T11:22:16;53.88;;;24.90;;
42168;SDS011;27838;43.858;25.974;2024-02-21T11:24:43;43.90;;;23.17;;
42168;SDS011;27838;43.858;25.974;2024-02-21T11:27:13;38.72;;;22.40;;
42168;SDS011;27838;43.858;25.974;2024-02-21T11:29:59;82.72;;;51.25;;
42168;SDS011;27838;43.858;25.974;2024-02-21T11:32:26;42.85;;;24.85;;
42168;SDS011;27838;43.858;25.974;2024-02-21T11:37:26;44.78;;;24.02;;
42168;SDS011;27838;43.858;25.974;2024-02-21T11:39:57;42.20;;;22.42;;
42168;SDS011;27838;43.858;25.974;2024-02-21T11:42:27;39.03;;;21.95;;
42168;SDS011;27838;43.858;25.974;2024-02-21T11:44:54;39.88;;;22.25;;
42168;SDS011;27838;43.858;25.974;2024-02-21T11:47:23;33.20;;;20.52;;
42168;SDS011;27838;43.858;25.974;2024-02-21T11:49:50;61.03;;;24.30;;
42168;SDS011;27838;43.858;25.974;2024-02-21T11:52:19;52.45;;;24.60;;
42168;SDS011;27838;43.858;25.974;2024-02-21T11:54:50;58.22;;;25.38;;
42168;SDS011;27838;43.858;25.974;2024-02-21T11:57:17;47.85;;;22.50;;
42168;SDS011;27838;43.858;25.974;2024-02-21T11:59:44;57.20;;;25.85;;
42168;SDS011;27838;43.858;25.974;2024-02-21T12:02:11;49.75;;;24.20;;
42168;SDS011;27838;43.858;25.974;2024-02-21T12:04:38;47.80;;;23.98;;
42168;SDS011;27838;43.858;25.974;2024-02-21T12:07:05;57.72;;;25.30;;
42168;SDS011;27838;43.858;25.974;2024-02-21T12:09:33;48.60;;;23.90;;
42168;SDS011;27838;43.858;25.974;2024-02-21T12:12:01;45.83;;;23.70;;
42168;SDS011;27838;43.858;25.974;2024-02-21T12:14:32;45.30;;;23.60;;
42168;SDS011;27838;43.858;25.974;2024-02-21T12:17:00;42.45;;;21.92;;
42168;SDS011;27838;43.858;25.974;2024-02-21T12:19:29;50.13;;;25.20;;
42168;SDS011;27838;43.858;25.974;2024-02-21T12:21:56;48.95;;;23.13;;
42168;SDS011;27838;43.858;25.974;2024-02-21T12:24:25;44.95;;;23.02;;
42168;SDS011;27838;43.858;25.974;2024-02-21T12:26:53;45.60;;;21.55;;
42168;SDS011;27838;43.858;25.974;2024-02-21T12:29:21;37.03;;;19.52;;
42168;SDS011;27838;43.858;25.974;2024-02-21T12:31:49;42.40;;;19.67;;
42168;SDS011;27838;43.858;25.974;2024-02-21T12:34:16;34.63;;;20.08;;
42168;SDS011;27838;43.858;25.974;2024-02-21T12:36:44;30.45;;;18.48;;
42168;SDS011;27838;43.858;25.974;2024-02-21T12:39:12;36.95;;;18.70;;
42168;SDS011;27838;43.858;25.974;2024-02-21T12:41:39;35.60;;;18.45;;
42168;SDS011;27838;43.858;25.974;2024-02-21T12:44:08;31.77;;;17.92;;
42168;SDS011;27838;43.858;25.974;2024-02-21T12:46:36;34.58;;;18.25;;
42168;SDS011;27838;43.858;25.974;2024-02-21T12:49:03;36.63;;;20.05;;
42168;SDS011;27838;43.858;25.974;2024-02-21T12:51:31;32.10;;;17.83;;
42168;SDS011;27838;43.858;25.974;2024-02-21T12:53:58;30.33;;;17.70;;
42168;SDS011;27838;43.858;25.974;2024-02-21T12:56:25;35.03;;;18.50;;
42168;SDS011;27838;43.858;25.974;2024-02-21T12:58:53;31.67;;;17.60;;
42168;SDS011;27838;43.858;25.974;2024-02-21T13:01:20;30.80;;;16.95;;
42168;SDS011;27838;43.858;25.974;2024-02-21T13:03:47;29.85;;;17.90;;
42168;SDS011;27838;43.858;25.974;2024-02-21T13:06:14;36.40;;;19.38;;
42168;SDS011;27838;43.858;25.974;2024-02-21T13:08:40;34.45;;;22.35;;
42168;SDS011;27838;43.858;25.974;2024-02-21T13:11:09;30.95;;;19.08;;
42168;SDS011;27838;43.858;25.974;2024-02-21T13:13:36;31.48;;;17.15;;
42168;SDS011;27838;43.858;25.974;2024-02-21T13:16:03;27.75;;;17.80;;
42168;SDS011;27838;43.858;25.974;2024-02-21T13:18:30;30.45;;;19.20;;
42168;SDS011;27838;43.858;25.974;2024-02-21T13:20:57;33.38;;;19.02;;
42168;SDS011;27838;43.858;25.974;2024-02-21T13:23:24;31.45;;;17.40;;
42168;SDS011;27838;43.858;25.974;2024-02-21T13:25:50;31.63;;;18.38;;
42168;SDS011;27838;43.858;25.974;2024-02-21T13:28:17;38.58;;;20.00;;
42168;SDS011;27838;43.858;25.974;2024-02-21T13:30:43;38.60;;;19.92;;
42168;SDS011;27838;43.858;25.974;2024-02-21T13:33:10;29.55;;;18.85;;
42168;SDS011;27838;43.858;25.974;2024-02-21T13:35:37;31.15;;;18.10;;
42168;SDS011;27838;43.858;25.974;2024-02-21T13:38:03;31.77;;;19.42;;
42168;SDS011;27838;43.858;25.974;2024-02-21T13:40:30;34.85;;;20.45;;
42168;SDS011;27838;43.858;25.974;2024-02-21T13:42:57;32.47;;;19.58;;
42168;SDS011;27838;43.858;25.974;2024-02-21T13:45:24;36.85;;;22.73;;
42168;SDS011;27838;43.858;25.974;2024-02-21T13:47:50;37.70;;;21.00;;
42168;SDS011;27838;43.858;25.974;2024-02-21T13:50:17;51.58;;;23.02;;
42168;SDS011;27838;43.858;25.974;2024-02-21T13:52:45;56.55;;;26.05;;
42168;SDS011;27838;43.858;25.974;2024-02-21T13:55:12;43.42;;;21.88;;
42168;SDS011;27838;43.858;25.974;2024-02-21T13:57:38;105.88;;;37.60;;
42168;SDS011;27838;43.858;25.974;2024-02-21T14:00:05;47.97;;;23.88;;
42168;SDS011;27838;43.858;25.974;2024-02-21T14:02:35;64.32;;;26.42;;
42168;SDS011;27838;43.858;25.974;2024-02-21T14:05:04;41.97;;;21.35;;
42168;SDS011;27838;43.858;25.974;2024-02-21T14:07:31;46.47;;;22.40;;
42168;SDS011;27838;43.858;25.974;2024-02-21T14:09:58;104.03;;;40.35;;
42168;SDS011;27838;43.858;25.974;2024-02-21T14:12:25;79.35;;;37.60;;